sensor_id;sensor_type;location;lat;lon;timestamp;pressure;altitude;pressure_sealevel;temperature;humidity
47280;BME280;34064;44.942;0.008;2024-03-25T00:00:14;98435.34;;;9.90;55.77
47280;BME280;34064;44.942;0.008;2024-03-25T00:02:41;98427.28;;;9.92;55.44
47280;BME280;34064;44.942;0.008;2024-03-25T00:05:08;98429.22;;;9.90;55.51
47280;BME280;34064;44.942;0.008;2024-03-25T00:07:36;98418.72;;;9.88;55.46
47280;BME280;34064;44.942;0.008;2024-03-25T00:10:03;98412.22;;;9.81;55.79
47280;BME280;34064;44.942;0.008;2024-03-25T00:12:29;98411.50;;;9.79;55.62
47280;BME280;34064;44.942;0.008;2024-03-25T00:14:56;98399.19;;;9.78;55.79
47280;BME280;34064;44.942;0.008;2024-03-25T00:17:22;98392.22;;;9.77;55.57
47280;BME280;34064;44.942;0.008;2024-03-25T00:19:48;98389.06;;;9.72;55.96
47280;BME280;34064;44.942;0.008;2024-03-25T00:22:20;98388.34;;;9.70;55.58
47280;BME280;34064;44.942;0.008;2024-03-25T00:24:48;98387.38;;;9.71;55.45
47280;BME280;34064;44.942;0.008;2024-03-25T00:27:15;98385.00;;;9.67;55.73
47280;BME280;34064;44.942;0.008;2024-03-25T00:29:43;98387.88;;;9.64;55.93
47280;BME280;34064;44.942;0.008;2024-03-25T00:32:11;98388.13;;;9.61;55.78
47280;BME280;34064;44.942;0.008;2024-03-25T00:34:41;98382.34;;;9.56;55.89
47280;BME280;34064;44.942;0.008;2024-03-25T00:37:07;98375.34;;;9.55;55.82
47280;BME280;34064;44.942;0.008;2024-03-25T00:39:33;98373.78;;;9.52;55.80
47280;BME280;34064;44.942;0.008;2024-03-25T00:42:01;98368.84;;;9.48;55.79
47280;BME280;34064;44.942;0.008;2024-03-25T00:44:27;98374.25;;;9.46;55.61
47280;BME280;34064;44.942;0.008;2024-03-25T00:46:54;98366.44;;;9.45;55.84
47280;BME280;34064;44.942;0.008;2024-03-25T00:49:20;98365.59;;;9.44;56.04
47280;BME280;34064;44.942;0.008;2024-03-25T00:51:49;98358.72;;;9.42;55.91
47280;BME280;34064;44.942;0.008;2024-03-25T00:54:16;98351.63;;;9.42;55.86
47280;BME280;34064;44.942;0.008;2024-03-25T00:56:42;98339.19;;;9.43;55.93
47280;BME280;34064;44.942;0.008;2024-03-25T00:59:10;98337.41;;;9.43;55.79
47280;BME280;34064;44.942;0.008;2024-03-25T01:01:36;98327.63;;;9.44;55.80
47280;BME280;34064;44.942;0.008;2024-03-25T01:04:03;98321.50;;;9.43;56.02
47280;BME280;34064;44.942;0.008;2024-03-25T01:06:30;98325.13;;;9.42;55.91
47280;BME280;34064;44.942;0.008;2024-03-25T01:08:56;98319.91;;;9.41;55.88
47280;BME280;34064;44.942;0.008;2024-03-25T01:11:22;98320.91;;;9.40;55.90
47280;BME280;34064;44.942;0.008;2024-03-25T01:13:49;98317.25;;;9.41;55.78
47280;BME280;34064;44.942;0.008;2024-03-25T01:16:16;98314.88;;;9.38;55.77
47280;BME280;34064;44.942;0.008;2024-03-25T01:18:42;98315.47;;;9.30;55.99
47280;BME280;34064;44.942;0.008;2024-03-25T01:21:09;98313.91;;;9.27;56.03
47280;BME280;34064;44.942;0.008;2024-03-25T01:23:35;98313.69;;;9.19;56.07
47280;BME280;34064;44.942;0.008;2024-03-25T01:26:03;98300.19;;;9.11;55.93
47280;BME280;34064;44.942;0.008;2024-03-25T01:28:31;98299.94;;;9.02;56.32
47280;BME280;34064;44.942;0.008;2024-03-25T01:30:59;98303.94;;;8.97;56.23
47280;BME280;34064;44.942;0.008;2024-03-25T01:33:27;98287.75;;;8.88;56.32
47280;BME280;34064;44.942;0.008;2024-03-25T01:35:54;98275.59;;;8.86;56.25
47280;BME280;34064;44.942;0.008;2024-03-25T01:38:21;98272.00;;;8.87;56.12
47280;BME280;34064;44.942;0.008;2024-03-25T01:40:48;98270.22;;;8.87;55.92
47280;BME280;34064;44.942;0.008;2024-03-25T01:43:15;98273.69;;;8.88;56.01
47280;BME280;34064;44.942;0.008;2024-03-25T01:45:42;98261.16;;;8.90;56.11
47280;BME280;34064;44.942;0.008;2024-03-25T01:48:10;98257.06;;;8.86;56.47
47280;BME280;34064;44.942;0.008;2024-03-25T01:50:43;98257.78;;;8.77;56.87
47280;BME280;34064;44.942;0.008;2024-03-25T01:53:12;98248.16;;;8.76;56.49
47280;BME280;34064;44.942;0.008;2024-03-25T01:55:39;98254.53;;;8.73;56.38
47280;BME280;34064;44.942;0.008;2024-03-25T01:58:06;98246.94;;;8.68;56.60
47280;BME280;34064;44.942;0.008;2024-03-25T02:00:33;98255.25;;;8.64;56.70
47280;BME280;34064;44.942;0.008;2024-03-25T02:03:04;98242.38;;;8.59;56.83
47280;BME280;34064;44.942;0.008;2024-03-25T02:05:31;98242.22;;;8.61;56.44
47280;BME280;34064;44.942;0.008;2024-03-25T02:08:01;98226.34;;;8.61;56.43
47280;BME280;34064;44.942;0.008;2024-03-25T02:10:27;98222.88;;;8.60;56.41
47280;BME280;34064;44.942;0.008;2024-03-25T02:12:55;98218.41;;;8.61;56.66
47280;BME280;34064;44.942;0.008;2024-03-25T02:15:22;98211.19;;;8.63;56.34
47280;BME280;34064;44.942;0.008;2024-03-25T02:17:48;98211.31;;;8.61;56.66
47280;BME280;34064;44.942;0.008;2024-03-25T02:20:15;98214.44;;;8.55;56.94
47280;BME280;34064;44.942;0.008;2024-03-25T02:22:42;98210.22;;;8.52;56.83
47280;BME280;34064;44.942;0.008;2024-03-25T02:25:10;98208.25;;;8.43;57.12
47280;BME280;34064;44.942;0.008;2024-03-25T02:27:39;98202.34;;;8.39;56.69
47280;BME280;34064;44.942;0.008;2024-03-25T02:30:10;98197.19;;;8.38;56.50
47280;BME280;34064;44.942;0.008;2024-03-25T02:32:40;98189.59;;;8.33;56.45
47280;BME280;34064;44.942;0.008;2024-03-25T02:35:13;98197.03;;;8.28;56.66
47280;BME280;34064;44.942;0.008;2024-03-25T02:37:42;98193.91;;;8.23;56.75
47280;BME280;34064;44.942;0.008;2024-03-25T02:40:09;98197.03;;;8.17;57.06
47280;BME280;34064;44.942;0.008;2024-03-25T02:42:36;98185.47;;;8.18;56.60
47280;BME280;34064;44.942;0.008;2024-03-25T02:45:03;98182.13;;;8.16;56.45
47280;BME280;34064;44.942;0.008;2024-03-25T02:47:31;98173.69;;;8.10;56.57
47280;BME280;34064;44.942;0.008;2024-03-25T02:49:57;98172.00;;;8.09;56.76
47280;BME280;34064;44.942;0.008;2024-03-25T02:52:25;98165.28;;;8.05;56.92
47280;BME280;34064;44.942;0.008;2024-03-25T02:54:52;98150.47;;;8.03;56.84
47280;BME280;34064;44.942;0.008;2024-03-25T02:57:20;98134.72;;;8.01;57.01
47280;BME280;34064;44.942;0.008;2024-03-25T02:59:46;98140.25;;;7.98;56.65
47280;BME280;34064;44.942;0.008;2024-03-25T03:02:13;98143.25;;;7.93;56.92
47280;BME280;34064;44.942;0.008;2024-03-25T03:04:41;98127.38;;;7.93;56.94
47280;BME280;34064;44.942;0.008;2024-03-25T03:07:08;98117.75;;;7.92;56.83
47280;BME280;34064;44.942;0.008;2024-03-25T03:09:34;98116.06;;;7.91;56.92
47280;BME280;34064;44.942;0.008;2024-03-25T03:12:01;98110.66;;;7.93;57.02
47280;BME280;34064;44.942;0.008;2024-03-25T03:14:27;98099.13;;;7.94;56.77
47280;BME280;34064;44.942;0.008;2024-03-25T03:16:53;98099.34;;;7.91;57.02
47280;BME280;34064;44.942;0.008;2024-03-25T03:19:22;98103.44;;;7.84;57.18
47280;BME280;34064;44.942;0.008;2024-03-25T03:21:48;98091.66;;;7.88;57.03
47280;BME280;34064;44.942;0.008;2024-03-25T03:24:14;98086.38;;;7.88;56.76
47280;BME280;34064;44.942;0.008;2024-03-25T03:26:41;98077.94;;;7.83;57.09
47280;BME280;34064;44.942;0.008;2024-03-25T03:29:07;98071.69;;;7.84;56.93
47280;BME280;34064;44.942;0.008;2024-03-25T03:31:33;98067.22;;;7.84;57.01
47280;BME280;34064;44.942;0.008;2024-03-25T03:34:00;98054.88;;;7.85;57.20
47280;BME280;34064;44.942;0.008;2024-03-25T03:36:27;98048.84;;;7.83;57.46
47280;BME280;34064;44.942;0.008;2024-03-25T03:38:55;98039.72;;;7.87;56.87
47280;BME280;34064;44.942;0.008;2024-03-25T03:41:21;98037.09;;;7.87;57.19
47280;BME280;34064;44.942;0.008;2024-03-25T03:43:49;98029.75;;;7.90;56.90
47280;BME280;34064;44.942;0.008;2024-03-25T03:46:18;98020.97;;;7.90;56.93
47280;BME280;34064;44.942;0.008;2024-03-25T03:48:45;98009.44;;;7.91;57.00
47280;BME280;34064;44.942;0.008;2024-03-25T03:51:12;98013.03;;;7.90;57.00
47280;BME280;34064;44.942;0.008;2024-03-25T03:53:38;98014.00;;;7.89;57.00
47280;BME280;34064;44.942;0.008;2024-03-25T03:56:05;98006.06;;;7.89;56.87
47280;BME280;34064;44.942;0.008;2024-03-25T03:58:33;97995.47;;;7.89;56.77
47280;BME280;34064;44.942;0.008;2024-03-25T04:01:00;97988.53;;;7.88;56.56
47280;BME280;34064;44.942;0.008;2024-03-25T04:03:27;97985.38;;;7.83;57.30
47280;BME280;34064;44.942;0.008;2024-03-25T04:05:53;97977.47;;;7.83;57.10
47280;BME280;34064;44.942;0.008;2024-03-25T04:08:19;97968.09;;;7.78;57.65
47280;BME280;34064;44.942;0.008;2024-03-25T04:10:46;97957.25;;;7.81;57.26
47280;BME280;34064;44.942;0.008;2024-03-25T04:13:12;97951.16;;;7.81;57.34
47280;BME280;34064;44.942;0.008;2024-03-25T04:15:40;97952.84;;;7.82;57.23
47280;BME280;34064;44.942;0.008;2024-03-25T04:18:08;97948.38;;;7.83;57.24
47280;BME280;34064;44.942;0.008;2024-03-25T04:20:41;97936.84;;;7.84;57.08
47280;BME280;34064;44.942;0.008;2024-03-25T04:23:08;97930.00;;;7.81;57.56
47280;BME280;34064;44.942;0.008;2024-03-25T04:25:35;97930.81;;;7.81;57.40
47280;BME280;34064;44.942;0.008;2024-03-25T04:28:04;97928.91;;;7.84;56.99
47280;BME280;34064;44.942;0.008;2024-03-25T04:30:32;97922.78;;;7.83;57.19
47280;BME280;34064;44.942;0.008;2024-03-25T04:33:00;97920.16;;;7.83;57.38
47280;BME280;34064;44.942;0.008;2024-03-25T04:35:26;97920.25;;;7.81;57.49
47280;BME280;34064;44.942;0.008;2024-03-25T04:37:54;97916.63;;;7.83;57.24
47280;BME280;34064;44.942;0.008;2024-03-25T04:40:21;97921.56;;;7.76;57.42
47280;BME280;34064;44.942;0.008;2024-03-25T04:42:48;97911.84;;;7.76;57.19
47280;BME280;34064;44.942;0.008;2024-03-25T04:45:15;97903.44;;;7.71;57.43
47280;BME280;34064;44.942;0.008;2024-03-25T04:47:42;97909.81;;;7.69;57.45
47280;BME280;34064;44.942;0.008;2024-03-25T04:50:10;97898.88;;;7.62;57.87
47280;BME280;34064;44.942;0.008;2024-03-25T04:52:38;97895.53;;;7.60;57.53
47280;BME280;34064;44.942;0.008;2024-03-25T04:55:05;97886.88;;;7.58;57.61
47280;BME280;34064;44.942;0.008;2024-03-25T04:57:32;97872.19;;;7.54;57.61
47280;BME280;34064;44.942;0.008;2024-03-25T04:59:58;97866.09;;;7.53;57.56
47280;BME280;34064;44.942;0.008;2024-03-25T05:02:24;97872.09;;;7.55;57.81
47280;BME280;34064;44.942;0.008;2024-03-25T05:04:51;97849.88;;;7.58;57.35
47280;BME280;34064;44.942;0.008;2024-03-25T05:07:18;97856.84;;;7.59;57.65
47280;BME280;34064;44.942;0.008;2024-03-25T05:09:44;97848.19;;;7.57;57.84
47280;BME280;34064;44.942;0.008;2024-03-25T05:12:11;97839.28;;;7.58;57.65
47280;BME280;34064;44.942;0.008;2024-03-25T05:14:37;97840.97;;;7.59;57.65
47280;BME280;34064;44.942;0.008;2024-03-25T05:17:03;97831.38;;;7.58;57.69
47280;BME280;34064;44.942;0.008;2024-03-25T05:19:31;97831.47;;;7.56;57.93
47280;BME280;34064;44.942;0.008;2024-03-25T05:21:58;97826.31;;;7.55;57.61
47280;BME280;34064;44.942;0.008;2024-03-25T05:24:24;97820.56;;;7.49;58.02
47280;BME280;34064;44.942;0.008;2024-03-25T05:26:51;97827.78;;;7.47;58.03
47280;BME280;34064;44.942;0.008;2024-03-25T05:29:17;97819.00;;;7.47;57.64
47280;BME280;34064;44.942;0.008;2024-03-25T05:32:00;97807.59;;;7.46;57.92
47280;BME280;34064;44.942;0.008;2024-03-25T05:34:27;97804.94;;;7.46;57.94
47280;BME280;34064;44.942;0.008;2024-03-25T05:36:54;97808.69;;;7.44;58.13
47280;BME280;34064;44.942;0.008;2024-03-25T05:39:21;97805.19;;;7.43;58.22
47280;BME280;34064;44.942;0.008;2024-03-25T05:41:48;97812.66;;;7.38;58.15
47280;BME280;34064;44.942;0.008;2024-03-25T05:44:15;97798.47;;;7.39;58.09
47280;BME280;34064;44.942;0.008;2024-03-25T05:46:41;97798.47;;;7.39;58.10
47280;BME280;34064;44.942;0.008;2024-03-25T05:49:08;97786.94;;;7.40;57.92
47280;BME280;34064;44.942;0.008;2024-03-25T05:51:34;97787.66;;;7.42;57.83
47280;BME280;34064;44.942;0.008;2024-03-25T05:54:01;97780.44;;;7.44;58.13
47280;BME280;34064;44.942;0.008;2024-03-25T05:56:28;97778.53;;;7.46;58.09
47280;BME280;34064;44.942;0.008;2024-03-25T05:59:00;97770.34;;;7.49;57.82
47280;BME280;34064;44.942;0.008;2024-03-25T06:01:27;97778.28;;;7.49;58.32
47280;BME280;34064;44.942;0.008;2024-03-25T06:03:53;97769.41;;;7.51;58.36
47280;BME280;34064;44.942;0.008;2024-03-25T06:06:20;97771.19;;;7.50;57.96
47280;BME280;34064;44.942;0.008;2024-03-25T06:08:46;97766.84;;;7.49;57.91
47280;BME280;34064;44.942;0.008;2024-03-25T06:11:13;97756.41;;;7.47;57.94
47280;BME280;34064;44.942;0.008;2024-03-25T06:13:39;97750.75;;;7.52;57.86
47280;BME280;34064;44.942;0.008;2024-03-25T06:16:06;97743.56;;;7.54;57.94
47280;BME280;34064;44.942;0.008;2024-03-25T06:18:32;97747.75;;;7.57;58.42
47280;BME280;34064;44.942;0.008;2024-03-25T06:20:59;97741.22;;;7.61;58.25
47280;BME280;34064;44.942;0.008;2024-03-25T06:23:26;97733.91;;;7.64;58.41
47280;BME280;34064;44.942;0.008;2024-03-25T06:25:54;97724.63;;;7.70;57.96
47280;BME280;34064;44.942;0.008;2024-03-25T06:28:21;97716.59;;;7.72;58.51
47280;BME280;34064;44.942;0.008;2024-03-25T06:30:48;97706.59;;;7.75;58.24
47280;BME280;34064;44.942;0.008;2024-03-25T06:33:34;97706.47;;;7.77;58.76
47280;BME280;34064;44.942;0.008;2024-03-25T06:36:19;97691.06;;;7.82;58.93
47280;BME280;34064;44.942;0.008;2024-03-25T06:38:46;97695.59;;;7.91;58.18
47280;BME280;34064;44.942;0.008;2024-03-25T06:41:13;97687.38;;;7.94;58.78
47280;BME280;34064;44.942;0.008;2024-03-25T06:43:39;97678.94;;;8.01;58.73
47280;BME280;34064;44.942;0.008;2024-03-25T06:46:06;97668.00;;;8.05;58.61
47280;BME280;34064;44.942;0.008;2024-03-25T06:48:35;97669.28;;;8.11;58.93
47280;BME280;34064;44.942;0.008;2024-03-25T06:51:02;97658.31;;;8.16;58.72
47280;BME280;34064;44.942;0.008;2024-03-25T06:53:29;97657.78;;;8.22;58.83
47280;BME280;34064;44.942;0.008;2024-03-25T06:55:56;97651.25;;;8.26;59.15
47280;BME280;34064;44.942;0.008;2024-03-25T06:58:29;97650.88;;;8.31;59.13
47280;BME280;34064;44.942;0.008;2024-03-25T07:00:56;97641.53;;;8.36;59.79
47280;BME280;34064;44.942;0.008;2024-03-25T07:03:24;97641.16;;;8.41;59.77
47280;BME280;34064;44.942;0.008;2024-03-25T07:05:53;97628.13;;;8.49;58.84
47280;BME280;34064;44.942;0.008;2024-03-25T07:08:20;97627.28;;;8.49;59.79
47280;BME280;34064;44.942;0.008;2024-03-25T07:10:47;97625.66;;;8.57;59.08
47280;BME280;34064;44.942;0.008;2024-03-25T07:13:13;97625.97;;;8.64;59.16
47280;BME280;34064;44.942;0.008;2024-03-25T07:15:40;97616.50;;;8.71;59.15
47280;BME280;34064;44.942;0.008;2024-03-25T07:18:06;97611.63;;;8.77;59.20
47280;BME280;34064;44.942;0.008;2024-03-25T07:20:33;97604.13;;;8.82;59.19
47280;BME280;34064;44.942;0.008;2024-03-25T07:22:59;97587.28;;;8.83;60.04
47280;BME280;34064;44.942;0.008;2024-03-25T07:25:26;97579.34;;;8.93;59.63
47280;BME280;34064;44.942;0.008;2024-03-25T07:27:53;97574.34;;;8.99;59.63
47280;BME280;34064;44.942;0.008;2024-03-25T07:30:20;97559.56;;;9.07;59.53
47280;BME280;34064;44.942;0.008;2024-03-25T07:32:48;97551.91;;;9.13;59.54
47280;BME280;34064;44.942;0.008;2024-03-25T07:35:14;97539.91;;;9.19;59.28
47280;BME280;34064;44.942;0.008;2024-03-25T07:37:43;97539.34;;;9.25;59.52
47280;BME280;34064;44.942;0.008;2024-03-25T07:40:10;97522.88;;;9.31;59.15
47280;BME280;34064;44.942;0.008;2024-03-25T07:42:38;97527.63;;;9.38;59.84
47280;BME280;34064;44.942;0.008;2024-03-25T07:45:05;97511.84;;;9.46;59.48
47280;BME280;34064;44.942;0.008;2024-03-25T07:47:32;97503.31;;;9.52;59.69
47280;BME280;34064;44.942;0.008;2024-03-25T07:49:59;97491.03;;;9.61;59.75
47280;BME280;34064;44.942;0.008;2024-03-25T07:52:26;97479.00;;;9.66;59.71
47280;BME280;34064;44.942;0.008;2024-03-25T07:54:56;97466.84;;;9.74;59.89
47280;BME280;34064;44.942;0.008;2024-03-25T07:57:22;97459.69;;;9.84;60.00
47280;BME280;34064;44.942;0.008;2024-03-25T07:59:49;97448.19;;;9.93;60.05
47280;BME280;34064;44.942;0.008;2024-03-25T08:02:16;97438.38;;;10.04;60.09
47280;BME280;34064;44.942;0.008;2024-03-25T08:04:42;97426.63;;;10.06;60.29
47280;BME280;34064;44.942;0.008;2024-03-25T08:07:09;97424.59;;;10.18;60.00
47280;BME280;34064;44.942;0.008;2024-03-25T08:09:35;97417.25;;;10.30;59.96
47280;BME280;34064;44.942;0.008;2024-03-25T08:12:01;97406.06;;;10.36;60.25
47280;BME280;34064;44.942;0.008;2024-03-25T08:14:28;97398.03;;;10.46;60.01
47280;BME280;34064;44.942;0.008;2024-03-25T08:16:54;97399.78;;;10.55;59.97
47280;BME280;34064;44.942;0.008;2024-03-25T08:19:20;97383.25;;;10.61;59.82
47280;BME280;34064;44.942;0.008;2024-03-25T08:21:47;97379.53;;;10.72;59.77
47280;BME280;34064;44.942;0.008;2024-03-25T08:24:14;97356.53;;;10.81;59.76
47280;BME280;34064;44.942;0.008;2024-03-25T08:26:41;97362.56;;;10.91;59.52
47280;BME280;34064;44.942;0.008;2024-03-25T08:29:08;97352.84;;;11.00;59.56
47280;BME280;34064;44.942;0.008;2024-03-25T08:31:34;97353.19;;;11.05;59.50
47280;BME280;34064;44.942;0.008;2024-03-25T08:34:01;97329.34;;;11.14;59.33
47280;BME280;34064;44.942;0.008;2024-03-25T08:36:27;97316.91;;;11.22;59.22
47280;BME280;34064;44.942;0.008;2024-03-25T08:38:53;97312.31;;;11.33;59.10
47280;BME280;34064;44.942;0.008;2024-03-25T08:41:20;97303.56;;;11.41;58.78
47280;BME280;34064;44.942;0.008;2024-03-25T08:43:46;97307.06;;;11.49;58.68
47280;BME280;34064;44.942;0.008;2024-03-25T08:46:12;97302.81;;;11.57;58.44
47280;BME280;34064;44.942;0.008;2024-03-25T08:48:39;97291.81;;;11.60;58.36
47280;BME280;34064;44.942;0.008;2024-03-25T08:51:05;97285.53;;;11.69;57.90
47280;BME280;34064;44.942;0.008;2024-03-25T08:53:31;97279.59;;;11.75;57.78
47280;BME280;34064;44.942;0.008;2024-03-25T08:55:58;97273.59;;;11.81;57.52
47280;BME280;34064;44.942;0.008;2024-03-25T08:58:24;97268.63;;;11.86;57.33
47280;BME280;34064;44.942;0.008;2024-03-25T09:00:51;97263.97;;;11.89;57.28
47280;BME280;34064;44.942;0.008;2024-03-25T09:03:17;97250.66;;;11.97;56.95
47280;BME280;34064;44.942;0.008;2024-03-25T09:05:44;97252.72;;;12.03;56.97
47280;BME280;34064;44.942;0.008;2024-03-25T09:08:10;97244.88;;;12.10;56.21
47280;BME280;34064;44.942;0.008;2024-03-25T09:10:37;97240.09;;;12.22;56.09
47280;BME280;34064;44.942;0.008;2024-03-25T09:13:22;97247.41;;;12.28;55.95
47280;BME280;34064;44.942;0.008;2024-03-25T09:15:49;97241.75;;;12.31;55.92
47280;BME280;34064;44.942;0.008;2024-03-25T09:18:16;97241.75;;;12.39;55.41
47280;BME280;34064;44.942;0.008;2024-03-25T09:20:44;97230.59;;;12.44;54.93
47280;BME280;34064;44.942;0.008;2024-03-25T09:23:11;97218.09;;;12.53;55.01
47280;BME280;34064;44.942;0.008;2024-03-25T09:25:37;97212.59;;;12.62;54.80
47280;BME280;34064;44.942;0.008;2024-03-25T09:28:04;97198.25;;;12.72;54.97
47280;BME280;34064;44.942;0.008;2024-03-25T09:30:30;97191.72;;;12.83;54.51
47280;BME280;34064;44.942;0.008;2024-03-25T09:32:56;97185.34;;;12.92;54.19
47280;BME280;34064;44.942;0.008;2024-03-25T09:35:23;97173.19;;;12.98;54.37
47280;BME280;34064;44.942;0.008;2024-03-25T09:37:50;97173.66;;;13.01;54.47
47280;BME280;34064;44.942;0.008;2024-03-25T09:40:16;97169.63;;;13.14;54.59
47280;BME280;34064;44.942;0.008;2024-03-25T09:42:49;97159.38;;;13.25;54.10
47280;BME280;34064;44.942;0.008;2024-03-25T09:45:18;97147.31;;;13.38;53.36
47280;BME280;34064;44.942;0.008;2024-03-25T09:47:48;97134.44;;;13.50;53.31
47280;BME280;34064;44.942;0.008;2024-03-25T09:50:15;97129.72;;;13.60;53.10
47280;BME280;34064;44.942;0.008;2024-03-25T09:52:49;97105.28;;;13.71;52.52
47280;BME280;34064;44.942;0.008;2024-03-25T09:55:16;97102.44;;;13.73;52.43
47280;BME280;34064;44.942;0.008;2024-03-25T09:57:45;97100.88;;;13.79;52.57
47280;BME280;34064;44.942;0.008;2024-03-25T10:00:12;97102.28;;;13.89;52.27
47280;BME280;34064;44.942;0.008;2024-03-25T10:02:41;97099.56;;;13.98;52.41
47280;BME280;34064;44.942;0.008;2024-03-25T10:05:08;97070.03;;;14.14;51.82
47280;BME280;34064;44.942;0.008;2024-03-25T10:07:35;97066.25;;;14.24;51.79
47280;BME280;34064;44.942;0.008;2024-03-25T10:10:08;97053.09;;;14.37;51.50
47280;BME280;34064;44.942;0.008;2024-03-25T10:12:36;97038.25;;;14.49;51.60
47280;BME280;34064;44.942;0.008;2024-03-25T10:15:04;97028.31;;;14.58;51.55
47280;BME280;34064;44.942;0.008;2024-03-25T10:17:33;97008.97;;;14.71;50.74
47280;BME280;34064;44.942;0.008;2024-03-25T10:20:00;97003.13;;;14.82;50.72
47280;BME280;34064;44.942;0.008;2024-03-25T10:22:26;96994.91;;;14.84;50.50
47280;BME280;34064;44.942;0.008;2024-03-25T10:24:52;96989.00;;;14.89;50.43
47280;BME280;34064;44.942;0.008;2024-03-25T10:27:20;96978.38;;;14.95;50.46
47280;BME280;34064;44.942;0.008;2024-03-25T10:29:54;96964.47;;;15.07;49.90
47280;BME280;34064;44.942;0.008;2024-03-25T10:32:24;96948.50;;;15.13;49.66
47280;BME280;34064;44.942;0.008;2024-03-25T10:34:54;96954.19;;;15.25;49.86
47280;BME280;34064;44.942;0.008;2024-03-25T10:37:22;96940.41;;;15.28;49.76
47280;BME280;34064;44.942;0.008;2024-03-25T10:39:55;96935.94;;;15.36;49.82
47280;BME280;34064;44.942;0.008;2024-03-25T10:42:24;96921.22;;;15.47;49.88
47280;BME280;34064;44.942;0.008;2024-03-25T10:44:51;96919.63;;;15.52;49.96
47280;BME280;34064;44.942;0.008;2024-03-25T10:47:25;96912.06;;;15.63;49.91
47280;BME280;34064;44.942;0.008;2024-03-25T10:50:05;96901.22;;;15.71;49.42
47280;BME280;34064;44.942;0.008;2024-03-25T10:52:36;96896.47;;;15.73;49.43
47280;BME280;34064;44.942;0.008;2024-03-25T10:55:04;96887.25;;;15.82;48.96
47280;BME280;34064;44.942;0.008;2024-03-25T10:57:33;96886.22;;;15.83;48.70
47280;BME280;34064;44.942;0.008;2024-03-25T11:00:02;96882.81;;;15.89;48.87
47280;BME280;34064;44.942;0.008;2024-03-25T11:02:30;96874.19;;;15.94;49.13
47280;BME280;34064;44.942;0.008;2024-03-25T11:04:57;96878.72;;;16.00;49.08
47280;BME280;34064;44.942;0.008;2024-03-25T11:07:31;96863.94;;;16.11;48.38
47280;BME280;34064;44.942;0.008;2024-03-25T11:10:06;96859.63;;;16.17;48.33
47280;BME280;34064;44.942;0.008;2024-03-25T11:12:36;96861.09;;;16.26;48.27
47280;BME280;34064;44.942;0.008;2024-03-25T11:15:04;96850.00;;;16.36;47.74
47280;BME280;34064;44.942;0.008;2024-03-25T11:17:33;96844.22;;;16.39;47.75
47280;BME280;34064;44.942;0.008;2024-03-25T11:20:12;96838.88;;;16.46;47.76
47280;BME280;34064;44.942;0.008;2024-03-25T11:22:52;96831.09;;;16.51;47.74
47280;BME280;34064;44.942;0.008;2024-03-25T11:25:21;96829.44;;;16.57;47.53
47280;BME280;34064;44.942;0.008;2024-03-25T11:27:48;96826.56;;;16.58;47.09
47280;BME280;34064;44.942;0.008;2024-03-25T11:30:15;96824.91;;;16.64;47.32
47280;BME280;34064;44.942;0.008;2024-03-25T11:32:54;96811.09;;;16.74;46.99
47280;BME280;34064;44.942;0.008;2024-03-25T11:35:21;96808.81;;;16.77;46.82
47280;BME280;34064;44.942;0.008;2024-03-25T11:37:49;96806.16;;;16.91;46.51
47280;BME280;34064;44.942;0.008;2024-03-25T11:40:17;96800.56;;;16.92;46.02
47280;BME280;34064;44.942;0.008;2024-03-25T11:42:45;96789.47;;;16.95;45.55
47280;BME280;34064;44.942;0.008;2024-03-25T11:45:19;96786.16;;;17.00;45.79
47280;BME280;34064;44.942;0.008;2024-03-25T11:47:47;96791.94;;;16.97;45.63
47280;BME280;34064;44.942;0.008;2024-03-25T11:50:16;96789.88;;;16.99;45.68
47280;BME280;34064;44.942;0.008;2024-03-25T11:52:43;96785.75;;;17.03;45.86
47280;BME280;34064;44.942;0.008;2024-03-25T11:55:10;96770.25;;;17.05;45.61
47280;BME280;34064;44.942;0.008;2024-03-25T11:57:41;96769.44;;;17.05;45.64
47280;BME280;34064;44.942;0.008;2024-03-25T12:00:08;96773.38;;;17.09;45.64
47280;BME280;34064;44.942;0.008;2024-03-25T12:02:44;96780.41;;;17.03;45.59
47280;BME280;34064;44.942;0.008;2024-03-25T12:05:11;96770.88;;;17.07;45.52
47280;BME280;34064;44.942;0.008;2024-03-25T12:07:38;96761.41;;;17.11;45.65
47280;BME280;34064;44.942;0.008;2024-03-25T12:10:05;96765.72;;;17.19;45.02
47280;BME280;34064;44.942;0.008;2024-03-25T12:12:50;96753.97;;;17.13;45.21
47280;BME280;34064;44.942;0.008;2024-03-25T12:15:17;96766.94;;;17.17;45.86
47280;BME280;34064;44.942;0.008;2024-03-25T12:17:44;96749.00;;;17.24;45.18
47280;BME280;34064;44.942;0.008;2024-03-25T12:20:11;96742.41;;;17.20;45.44
47280;BME280;34064;44.942;0.008;2024-03-25T12:22:38;96735.59;;;17.24;45.10
47280;BME280;34064;44.942;0.008;2024-03-25T12:25:07;96734.53;;;17.25;45.20
47280;BME280;34064;44.942;0.008;2024-03-25T12:27:35;96737.84;;;17.27;45.39
47280;BME280;34064;44.942;0.008;2024-03-25T12:30:09;96730.41;;;17.29;45.56
47280;BME280;34064;44.942;0.008;2024-03-25T12:32:38;96728.13;;;17.33;45.37
47280;BME280;34064;44.942;0.008;2024-03-25T12:35:07;96726.06;;;17.35;45.53
47280;BME280;34064;44.942;0.008;2024-03-25T12:37:34;96725.00;;;17.42;45.60
47280;BME280;34064;44.942;0.008;2024-03-25T12:40:00;96703.28;;;17.51;45.06
47280;BME280;34064;44.942;0.008;2024-03-25T12:42:28;96709.06;;;17.48;45.55
47280;BME280;34064;44.942;0.008;2024-03-25T12:44:56;96705.72;;;17.59;45.70
47280;BME280;34064;44.942;0.008;2024-03-25T12:47:22;96691.44;;;17.65;45.63
47280;BME280;34064;44.942;0.008;2024-03-25T12:49:49;96681.06;;;17.75;45.17
47280;BME280;34064;44.942;0.008;2024-03-25T12:52:15;96682.47;;;17.78;45.33
47280;BME280;34064;44.942;0.008;2024-03-25T12:54:41;96669.44;;;17.82;45.30
47280;BME280;34064;44.942;0.008;2024-03-25T12:57:08;96654.94;;;17.89;45.66
47280;BME280;34064;44.942;0.008;2024-03-25T12:59:35;96654.91;;;18.03;45.39
47280;BME280;34064;44.942;0.008;2024-03-25T13:02:01;96656.66;;;18.16;44.99
47280;BME280;34064;44.942;0.008;2024-03-25T13:04:28;96651.00;;;18.24;44.68
47280;BME280;34064;44.942;0.008;2024-03-25T13:06:55;96643.47;;;18.33;44.34
47280;BME280;34064;44.942;0.008;2024-03-25T13:09:21;96636.25;;;18.33;44.44